createdAt,value
2022-09-10T00:01:20.500Z,11.63
2022-09-10T00:06:29.254Z,11.61
2022-09-10T00:11:39.009Z,11.60
2022-09-10T00:16:47.268Z,11.59
2022-09-10T00:21:55.500Z,11.57
2022-09-10T00:27:05.025Z,11.56
2022-09-10T00:32:13.325Z,11.55
2022-09-10T00:37:21.440Z,11.54
2022-09-10T00:42:30.261Z,11.52
2022-09-10T00:47:40.903Z,11.52
2022-09-10T00:52:49.218Z,11.50
2022-09-10T00:58:01.963Z,11.48
2022-09-10T01:03:13.165Z,11.47
2022-09-10T01:08:21.940Z,11.47
2022-09-10T01:13:51.291Z,11.46
2022-09-10T01:19:10.097Z,11.45
2022-09-10T01:24:43.274Z,11.46
2022-09-10T01:29:58.967Z,11.45
2022-09-10T01:35:16.219Z,11.45
2022-09-10T01:40:30.308Z,11.46
2022-09-10T01:45:58.105Z,11.45
2022-09-10T01:51:12.934Z,11.46
2022-09-10T01:56:36.033Z,11.45
2022-09-10T02:01:50.828Z,11.45
2022-09-10T02:07:01.081Z,11.45
2022-09-10T02:12:10.441Z,11.46
2022-09-10T02:17:57.336Z,11.47
2022-09-10T02:23:07.028Z,11.47
2022-09-10T02:28:15.588Z,11.46
2022-09-10T02:33:24.099Z,11.45
2022-09-10T02:38:32.636Z,11.45
2022-09-10T02:43:40.615Z,11.45
2022-09-10T02:48:49.131Z,11.44
2022-09-10T02:53:57.539Z,11.44
2022-09-10T02:59:05.591Z,11.44
2022-09-10T03:04:14.302Z,11.44
2022-09-10T03:09:22.930Z,11.44
2022-09-10T03:14:31.491Z,11.44
2022-09-10T03:19:42.360Z,11.44
2022-09-10T03:24:50.879Z,11.44
2022-09-10T03:29:58.902Z,11.44
2022-09-10T03:35:07.658Z,11.44
2022-09-10T03:40:17.062Z,11.45
2022-09-10T03:45:25.605Z,11.45
2022-09-10T03:50:33.227Z,11.45
2022-09-10T03:55:44.716Z,11.46
2022-09-10T04:00:53.158Z,11.45
2022-09-10T04:06:01.504Z,11.46
2022-09-10T04:11:10.176Z,11.46
2022-09-10T04:16:18.646Z,11.47
2022-09-10T04:21:26.727Z,11.47
2022-09-10T04:26:36.315Z,11.48
2022-09-10T04:31:47.123Z,11.47
2022-09-10T04:36:58.039Z,11.48
2022-09-10T04:42:10.283Z,11.48
2022-09-10T04:47:19.173Z,11.47
2022-09-10T04:52:28.221Z,11.47
2022-09-10T04:57:36.443Z,11.48
2022-09-10T05:02:46.870Z,11.48
2022-09-10T05:07:55.099Z,11.48
2022-09-10T05:13:03.143Z,11.49
2022-09-10T05:18:12.000Z,11.50
2022-09-10T05:23:20.287Z,11.51
2022-09-10T05:28:28.933Z,11.52
2022-09-10T05:33:37.205Z,11.54
2022-09-10T05:38:46.044Z,11.56
2022-09-10T05:43:55.723Z,11.58
2022-09-10T05:49:03.481Z,11.60
2022-09-10T05:54:13.206Z,11.62
2022-09-10T05:59:22.083Z,11.64
2022-09-10T06:04:33.128Z,11.66
2022-09-10T06:09:41.232Z,11.68
2022-09-10T06:15:13.379Z,11.71
2022-09-10T06:20:21.914Z,11.73
2022-09-10T06:25:31.434Z,11.75
2022-09-10T06:30:39.704Z,11.79
2022-09-10T06:35:56.330Z,11.80
2022-09-10T06:41:06.611Z,11.83
2022-09-10T06:47:01.682Z,11.85
2022-09-10T06:51:53.876Z,11.88
2022-09-10T06:57:01.811Z,11.89
2022-09-10T07:02:15.675Z,11.91
2022-09-10T07:07:24.371Z,11.93
2022-09-10T07:12:33.294Z,11.95
2022-09-10T07:17:42.494Z,11.98
2022-09-10T07:22:53.395Z,11.99
2022-09-10T07:28:02.626Z,12.02
2022-09-10T07:33:14.091Z,12.05
2022-09-10T07:38:24.341Z,12.08
2022-09-10T07:43:32.350Z,12.11
2022-09-10T07:48:41.768Z,12.13
2022-09-10T07:53:56.497Z,12.17
2022-09-10T07:59:06.754Z,12.20
2022-09-10T08:04:37.188Z,12.22
2022-09-10T08:09:48.839Z,12.25
2022-09-10T08:14:59.131Z,12.28
2022-09-10T08:20:09.117Z,12.31
2022-09-10T08:25:20.851Z,12.34
2022-09-10T08:30:29.951Z,12.36
2022-09-10T08:35:38.452Z,12.38
2022-09-10T08:40:49.322Z,12.41
2022-09-10T08:46:02.164Z,12.43
2022-09-10T08:51:19.301Z,12.46
2022-09-10T08:56:29.430Z,12.50
2022-09-10T09:01:43.907Z,12.53
2022-09-10T09:06:59.451Z,12.57
2022-09-10T09:12:16.039Z,12.59
2022-09-10T09:17:39.834Z,12.63
2022-09-10T09:22:55.468Z,12.66
2022-09-10T09:28:37.176Z,12.70
2022-09-10T09:33:48.512Z,12.75
2022-09-10T09:38:57.977Z,12.80
2022-09-10T09:44:13.694Z,12.83
2022-09-10T09:49:21.973Z,12.87
2022-09-10T09:55:03.126Z,12.90
2022-09-10T10:00:33.565Z,12.95
2022-09-10T10:05:42.760Z,12.99
2022-09-10T10:10:55.363Z,13.03
2022-09-10T10:16:19.145Z,13.07
2022-09-10T10:21:34.435Z,13.12
2022-09-10T10:26:46.176Z,13.15
2022-09-10T10:31:56.471Z,13.17
2022-09-10T10:37:17.520Z,13.19
2022-09-10T10:42:31.398Z,13.19
2022-09-10T10:47:56.828Z,13.20
2022-09-10T10:53:27.419Z,13.20
2022-09-10T10:58:56.386Z,13.20
2022-09-10T11:04:16.450Z,13.21
2022-09-10T11:09:29.159Z,13.22
2022-09-10T11:14:49.504Z,13.22
2022-09-10T11:20:29.757Z,13.24
2022-09-10T11:25:47.431Z,13.27
2022-09-10T11:31:01.784Z,13.29
2022-09-10T11:36:16.923Z,13.31
2022-09-10T11:41:30.351Z,13.33
2022-09-10T11:46:44.231Z,13.34
2022-09-10T11:51:52.988Z,13.35
2022-09-10T11:57:03.330Z,13.36
2022-09-10T12:02:50.003Z,13.36
2022-09-10T12:08:08.535Z,13.36
2022-09-10T12:13:18.556Z,13.36
2022-09-10T12:18:29.953Z,13.37
2022-09-10T12:23:41.402Z,13.37
2022-09-10T12:29:28.390Z,13.36
2022-09-10T12:34:36.486Z,13.36
2022-09-10T12:39:45.566Z,13.35
2022-09-10T12:44:54.368Z,13.34
2022-09-10T12:50:05.395Z,13.33
2022-09-10T12:55:22.947Z,13.33
2022-09-10T13:00:48.246Z,13.32
2022-09-10T13:06:01.034Z,13.32
2022-09-10T13:11:19.313Z,13.32
2022-09-10T13:16:44.333Z,13.33
2022-09-10T13:21:59.152Z,13.34
2022-09-10T13:27:23.853Z,13.35
2022-09-10T13:32:38.760Z,13.36
2022-09-10T13:38:17.767Z,13.37
2022-09-10T13:44:01.255Z,13.38
2022-09-10T13:49:17.060Z,13.39
2022-09-10T13:54:38.727Z,13.39
2022-09-10T13:59:49.808Z,13.40
2022-09-10T14:04:57.056Z,13.40
2022-09-10T14:10:07.887Z,13.40
2022-09-10T14:15:21.594Z,13.39
2022-09-10T14:20:31.221Z,13.40
2022-09-10T14:25:40.406Z,13.40
2022-09-10T14:30:49.043Z,13.40
2022-09-10T14:35:59.072Z,13.39
2022-09-10T14:41:19.205Z,13.39
2022-09-10T14:46:52.972Z,13.40
2022-09-10T14:52:01.904Z,13.40
2022-09-10T14:57:16.368Z,13.39
2022-09-10T15:02:27.980Z,13.39
2022-09-10T15:07:37.659Z,13.39
2022-09-10T15:12:50.177Z,13.38
2022-09-10T15:17:59.035Z,13.38
2022-09-10T15:23:08.289Z,13.37
2022-09-10T15:28:16.142Z,13.37
2022-09-10T15:33:24.464Z,13.37
2022-09-10T15:38:32.772Z,13.36
2022-09-10T15:43:43.217Z,13.36
2022-09-10T15:48:52.757Z,13.34
2022-09-10T15:54:04.916Z,13.34
2022-09-10T15:59:13.477Z,13.33
2022-09-10T16:04:21.560Z,13.32
2022-09-10T16:09:28.836Z,13.32
2022-09-10T16:14:37.856Z,13.32
2022-09-10T16:19:46.469Z,13.31
2022-09-10T16:24:54.679Z,13.30
2022-09-10T16:30:02.474Z,13.28
2022-09-10T16:35:12.542Z,13.27
2022-09-10T16:40:21.792Z,13.26
2022-09-10T16:45:30.873Z,13.24
2022-09-10T16:50:39.443Z,13.23
2022-09-10T16:55:47.492Z,13.21
2022-09-10T17:00:55.603Z,13.19
2022-09-10T17:06:05.671Z,13.16
2022-09-10T17:11:14.647Z,13.13
2022-09-10T17:16:33.055Z,13.10
2022-09-10T17:21:41.908Z,13.05
2022-09-10T17:26:50.863Z,13.01
2022-09-10T17:31:59.650Z,12.98
2022-09-10T17:37:10.095Z,12.94
2022-09-10T17:42:18.111Z,12.90
2022-09-10T17:47:27.175Z,12.85
2022-09-10T17:52:35.892Z,12.81
2022-09-10T17:57:43.620Z,12.76
2022-09-10T18:02:52.970Z,12.71
2022-09-10T18:08:03.246Z,12.66
2022-09-10T18:13:10.925Z,12.62
2022-09-10T18:18:19.322Z,12.57
2022-09-10T18:23:29.386Z,12.54
2022-09-10T18:28:39.126Z,12.49
2022-09-10T18:33:48.580Z,12.46
2022-09-10T18:38:56.730Z,12.43
2022-09-10T18:44:07.528Z,12.39
2022-09-10T18:49:21.223Z,12.37
2022-09-10T18:54:30.383Z,12.34
2022-09-10T18:59:41.453Z,12.32
2022-09-10T19:05:10.220Z,12.30
2022-09-10T19:10:21.810Z,12.28
2022-09-10T19:15:29.994Z,12.26
2022-09-10T19:20:41.713Z,12.25
2022-09-10T19:25:56.607Z,12.24
2022-09-10T19:31:05.991Z,12.23
2022-09-10T19:36:16.836Z,12.22
2022-09-10T19:41:26.021Z,12.21
2022-09-10T19:46:37.315Z,12.21
2022-09-10T19:51:45.872Z,12.20
2022-09-10T19:56:53.551Z,12.20
2022-09-10T20:02:02.135Z,12.19
2022-09-10T20:07:11.399Z,12.19
2022-09-10T20:12:18.644Z,12.19
2022-09-10T20:17:27.142Z,12.18
2022-09-10T20:22:39.807Z,12.17
2022-09-10T20:27:48.031Z,12.15
2022-09-10T20:32:56.720Z,12.13
2022-09-10T20:38:06.546Z,12.11
2022-09-10T20:43:14.996Z,12.09
2022-09-10T20:48:23.553Z,12.07
2022-09-10T20:53:36.577Z,12.05
2022-09-10T20:58:44.907Z,12.03
2022-09-10T21:03:55.279Z,12.01
2022-09-10T21:09:05.866Z,11.99
2022-09-10T21:14:15.399Z,11.99
2022-09-10T21:19:23.359Z,11.97
2022-09-10T21:24:31.477Z,11.97
2022-09-10T21:29:39.349Z,11.96
2022-09-10T21:34:47.183Z,11.96
2022-09-10T21:39:55.942Z,11.95
2022-09-10T21:45:03.884Z,11.95
2022-09-10T21:50:12.669Z,11.94
2022-09-10T21:55:20.918Z,11.93
2022-09-10T22:00:28.908Z,11.93
2022-09-10T22:05:36.898Z,11.91
2022-09-10T22:10:44.118Z,11.92
2022-09-10T22:15:54.357Z,11.91
2022-09-10T22:21:02.594Z,11.91
2022-09-10T22:26:13.121Z,11.91
2022-09-10T22:31:23.622Z,11.92
2022-09-10T22:36:33.406Z,11.93
2022-09-10T22:41:41.842Z,11.93
2022-09-10T22:46:49.853Z,11.94
2022-09-10T22:51:57.900Z,11.94
2022-09-10T22:57:05.842Z,11.95
2022-09-10T23:02:13.538Z,11.97
2022-09-10T23:07:21.740Z,11.97
2022-09-10T23:12:29.713Z,11.97
2022-09-10T23:17:37.436Z,11.97
2022-09-10T23:22:45.447Z,11.98
2022-09-10T23:27:54.692Z,11.98
2022-09-10T23:33:02.640Z,11.97
2022-09-10T23:38:11.000Z,11.96
2022-09-10T23:43:18.929Z,11.95
2022-09-10T23:48:26.907Z,11.95
2022-09-10T23:53:34.703Z,11.94
2022-09-10T23:58:42.605Z,11.94
